Doische, Belgium
Current Conditions -  °F | °C
As of 5:25 AM on Monday 22 Dec 2014 (Local Time) from EBFS Reporting Station
Overcast Overcast  
Wind Chill: 34°   Ceiling: 600
Heat Index: 43°   Visibility: 4mi
Dew Point: 41°   Wind: 20mph
Humidity: 93%   Direction: 230°SW
Pressure: 30.24"   Gusts: NA
Location:  50.13°N, 4.74°E
Report Text: EBFS 220425Z AUTO 23017KT 6000 FEW004/// BKN006/// OVC008/// 06/05 Q1024 YLO
Loading
Personal Weather Stations






























Interactive Weather Map New forecast layout! Learn more

10-Day Weather Forecast

Advertisements
Track Severe Weather on mobile